Time;durP1;ratioP1;P1;durP2;ratioP2;P2;SDS_P1;SDS_P2;PMS_P1;PMS_P2;Temp;Humidity;BMP_temperature;BMP_pressure;BME280_temperature;BME280_humidity;BME280_pressure;Samples;Min_cycle;Max_cycle;Signal;HPM_P1;HPM_P2
2022/05/25 00:01:59;;;;;;;24.85;13.07;;;7.40;99.90;;;;;;5040181;28;20049;-86
2022/05/25 00:04:24;;;;;;;27.80;14.68;;;7.40;99.90;;;;;;5040398;28;20041;-87
2022/05/25 00:06:50;;;;;;;23.58;13.35;;;7.50;99.90;;;;;;5040088;28;20037;-87
2022/05/25 00:09:16;;;;;;;26.67;14.65;;;7.40;99.90;;;;;;5040283;28;20049;-86
2022/05/25 00:11:41;;;;;;;25.70;14.70;;;7.40;99.90;;;;;;5040335;28;20101;-86
2022/05/25 00:14:07;;;;;;;27.02;15.20;;;7.50;99.90;;;;;;5040479;28;20478;-87
2022/05/25 00:16:33;;;;;;;31.42;16.60;;;7.50;99.90;;;;;;5040065;28;20044;-86
2022/05/25 00:21:43;;;;;;;34.30;16.05;;;7.60;99.90;;;;;;5039929;28;20148;-86
2022/05/25 00:24:08;;;;;;;27.27;15.48;;;7.50;99.90;;;;;;5039369;28;20064;-86
2022/05/25 00:26:35;;;;;;;27.45;15.27;;;7.50;99.90;;;;;;5039660;28;20052;-86
2022/05/25 00:29:02;;;;;;;29.17;15.18;;;7.50;99.90;;;;;;5039365;28;20056;-84
2022/05/25 00:31:28;;;;;;;26.35;14.90;;;7.50;99.90;;;;;;5039272;28;20045;-86
2022/05/25 00:33:53;;;;;;;25.42;15.57;;;7.40;99.90;;;;;;5039555;28;20045;-86
2022/05/25 00:36:19;;;;;;;29.45;14.18;;;7.50;99.90;;;;;;5040253;28;20104;-86
2022/05/25 00:38:45;;;;;;;29.60;15.23;;;7.50;99.90;;;;;;5039958;28;20055;-86
2022/05/25 00:41:11;;;;;;;31.08;15.77;;;7.50;99.90;;;;;;5039111;28;20397;-87
2022/05/25 00:43:37;;;;;;;27.67;15.35;;;7.60;99.90;;;;;;5039040;28;20053;-85
2022/05/25 00:46:08;;;;;;;32.45;16.33;;;7.50;99.90;;;;;;5025298;28;20042;-87
2022/05/25 00:48:56;;;;;;;33.92;14.65;;;7.50;99.90;;;;;;5020198;28;20056;-86
2022/05/25 00:51:28;;;;;;;30.20;16.35;;;7.40;99.90;;;;;;5019189;28;20050;-86
2022/05/25 00:54:11;;;;;;;30.02;16.98;;;7.40;99.90;;;;;;5019361;28;20056;-86
2022/05/25 00:56:42;;;;;;;35.92;18.60;;;7.40;99.90;;;;;;5019034;28;20080;-85
2022/05/25 00:59:20;;;;;;;33.78;16.58;;;7.40;99.90;;;;;;5019692;28;20042;-86
2022/05/25 01:01:46;;;;;;;34.30;17.55;;;7.40;99.90;;;;;;5019379;28;20054;-86
2022/05/25 01:04:12;;;;;;;33.08;17.25;;;7.50;99.90;;;;;;5021928;28;20090;-86
2022/05/25 01:06:50;;;;;;;36.03;18.30;;;7.50;99.90;;;;;;5023983;28;20128;-85
2022/05/25 01:09:40;;;;;;;29.60;17.63;;;7.50;99.90;;;;;;5023504;28;20044;-85
2022/05/25 01:12:30;;;;;;;36.50;18.73;;;7.40;99.90;;;;;;5024039;28;20045;-86
2022/05/25 01:15:12;;;;;;;30.92;18.30;;;7.40;99.90;;;;;;5023769;28;20049;-86
2022/05/25 01:18:02;;;;;;;38.65;18.95;;;7.30;99.90;;;;;;5023586;28;20046;-86
2022/05/25 01:20:42;;;;;;;30.38;18.10;;;7.30;99.90;;;;;;5023292;28;20383;-86
2022/05/25 01:23:50;;;;;;;43.75;20.75;;;7.30;99.90;;;;;;5022402;28;20050;-86
2022/05/25 01:26:37;;;;;;;40.13;20.88;;;7.40;99.90;;;;;;5023303;28;20053;-86
2022/05/25 01:29:14;;;;;;;38.83;20.48;;;7.40;99.90;;;;;;5022995;28;20053;-84
2022/05/25 01:32:02;;;;;;;38.58;19.52;;;7.40;99.90;;;;;;5022762;28;20097;-87
2022/05/25 01:34:36;;;;;;;37.00;20.48;;;7.40;99.90;;;;;;5024348;28;20034;-87
2022/05/25 01:37:14;;;;;;;39.80;20.85;;;7.40;99.90;;;;;;5022635;28;20042;-84
2022/05/25 01:39:45;;;;;;;38.42;20.23;;;7.40;99.90;;;;;;5022765;28;20046;-86
2022/05/25 01:42:27;;;;;;;44.22;21.05;;;7.40;99.90;;;;;;5022368;28;20079;-84
2022/05/25 01:44:58;;;;;;;44.33;22.58;;;7.30;99.90;;;;;;5022585;28;20046;-84
2022/05/25 01:47:26;;;;;;;42.55;21.60;;;7.40;99.90;;;;;;5023015;28;20041;-85
2022/05/25 01:49:55;;;;;;;41.05;21.40;;;7.30;99.90;;;;;;5022701;28;20045;-85
2022/05/25 01:52:35;;;;;;;46.15;22.05;;;7.30;99.90;;;;;;5022799;28;20038;-86
2022/05/25 01:55:06;;;;;;;48.33;23.55;;;7.20;99.90;;;;;;5022854;28;20050;-86
2022/05/25 01:57:35;;;;;;;51.80;23.08;;;7.20;99.90;;;;;;5022280;28;20090;-85
2022/05/25 02:00:01;;;;;;;45.75;23.13;;;7.20;99.90;;;;;;5021827;28;20105;-85
2022/05/25 02:05:15;;;;;;;50.60;24.38;;;7.20;99.90;;;;;;5021939;28;20054;-85
2022/05/25 02:08:22;;;;;;;52.25;25.38;;;7.20;99.90;;;;;;5037557;28;20045;-84
2022/05/25 02:11:11;;;;;;;51.88;24.35;;;7.20;99.90;;;;;;5022592;28;20121;-85
2022/05/25 02:14:15;;;;;;;50.83;24.35;;;7.10;99.90;;;;;;5022331;28;20529;-84
2022/05/25 02:17:22;;;;;;;45.83;24.63;;;7.10;99.90;;;;;;5021255;28;20497;-85
2022/05/25 02:20:02;;;;;;;51.83;25.83;;;7.20;99.90;;;;;;5021203;28;20128;-85
2022/05/25 02:22:47;;;;;;;56.60;25.08;;;7.30;99.90;;;;;;5020110;28;20056;-84
2022/05/25 02:25:18;;;;;;;50.60;25.13;;;7.40;99.90;;;;;;5021633;28;20037;-84
2022/05/25 02:27:56;;;;;;;51.30;25.10;;;7.40;99.90;;;;;;5021761;28;20046;-84
2022/05/25 02:30:25;;;;;;;53.30;25.80;;;7.30;99.90;;;;;;5020850;28;20046;-84
2022/05/25 02:33:13;;;;;;;54.90;25.45;;;7.40;99.90;;;;;;5021181;28;20053;-84
2022/05/25 02:35:42;;;;;;;53.63;25.30;;;7.40;99.90;;;;;;5020289;28;20045;-85
2022/05/25 02:38:09;;;;;;;48.10;25.15;;;7.40;99.90;;;;;;5019758;28;20057;-84
2022/05/25 02:40:38;;;;;;;50.72;25.95;;;7.40;99.90;;;;;;5020085;28;20042;-85
2022/05/25 02:43:07;;;;;;;48.85;23.95;;;7.40;99.90;;;;;;5020027;28;20069;-84
2022/05/25 02:45:34;;;;;;;53.53;24.73;;;7.40;99.90;;;;;;5020041;28;20045;-84
2022/05/25 02:48:00;;;;;;;56.72;26.17;;;7.40;99.90;;;;;;5018750;28;20060;-84
2022/05/25 02:50:26;;;;;;;53.88;25.35;;;7.40;99.90;;;;;;5019977;28;20050;-84
2022/05/25 02:52:51;;;;;;;52.97;25.00;;;7.40;99.90;;;;;;5020026;28;20487;-85
2022/05/25 02:55:18;;;;;;;52.08;25.85;;;7.40;99.90;;;;;;5019933;28;20045;-84
2022/05/25 02:57:44;;;;;;;48.60;24.33;;;7.40;99.90;;;;;;5019335;28;20050;-84
2022/05/25 03:00:11;;;;;;;58.28;26.52;;;7.30;99.90;;;;;;5017504;28;20057;-85
2022/05/25 03:02:37;;;;;;;51.28;25.52;;;7.30;99.90;;;;;;5018438;28;20120;-84
2022/05/25 03:05:05;;;;;;;46.92;24.30;;;7.30;99.90;;;;;;5017793;28;20128;-84
2022/05/25 03:07:30;;;;;;;52.20;26.70;;;7.30;99.90;;;;;;5018042;28;20045;-84
2022/05/25 03:09:56;;;;;;;56.88;27.27;;;7.30;99.90;;;;;;5017717;28;20050;-84
2022/05/25 03:12:22;;;;;;;52.75;26.67;;;7.20;99.90;;;;;;5017765;28;20394;-84
2022/05/25 03:14:47;;;;;;;54.35;26.40;;;7.20;99.90;;;;;;5019002;28;20117;-84
2022/05/25 03:17:14;;;;;;;61.00;29.58;;;7.10;99.90;;;;;;5018760;28;20538;-84
2022/05/25 03:19:41;;;;;;;58.75;25.60;;;7.10;99.90;;;;;;5017925;28;20046;-84
2022/05/25 03:22:07;;;;;;;51.58;26.05;;;7.10;99.90;;;;;;5018558;28;20380;-84
2022/05/25 03:24:33;;;;;;;61.97;27.92;;;7.20;99.90;;;;;;5018194;28;20054;-84
2022/05/25 03:26:58;;;;;;;66.88;27.95;;;7.20;99.90;;;;;;5017862;28;20098;-83
2022/05/25 03:29:25;;;;;;;56.15;26.83;;;7.20;99.90;;;;;;5017862;28;20042;-84
2022/05/25 03:31:51;;;;;;;68.85;29.38;;;7.20;99.90;;;;;;5018414;28;20065;-84
2022/05/25 03:34:17;;;;;;;61.45;29.33;;;7.30;99.90;;;;;;5018789;28;20042;-84
2022/05/25 03:36:44;;;;;;;59.95;27.85;;;7.30;99.90;;;;;;5019135;28;20042;-83
2022/05/25 03:39:10;;;;;;;63.45;29.80;;;7.30;99.90;;;;;;5017824;28;20077;-83
2022/05/25 03:41:35;;;;;;;64.32;29.33;;;7.30;99.90;;;;;;5017230;28;20470;-83
2022/05/25 03:44:01;;;;;;;63.97;30.48;;;7.40;99.90;;;;;;5017927;28;20038;-83
2022/05/25 03:46:27;;;;;;;61.45;29.38;;;7.40;99.90;;;;;;5017391;28;20046;-84
2022/05/25 03:48:53;;;;;;;68.63;31.60;;;7.50;99.90;;;;;;5028544;28;20044;-83
2022/05/25 03:51:18;;;;;;;66.78;28.80;;;7.80;99.90;;;;;;5036480;28;20402;-84
2022/05/25 03:53:44;;;;;;;65.07;29.95;;;7.60;99.90;;;;;;5036362;28;20145;-84
2022/05/25 03:56:09;;;;;;;62.88;29.15;;;7.60;99.90;;;;;;5036456;28;20044;-83
2022/05/25 03:58:35;;;;;;;63.75;29.67;;;7.60;99.90;;;;;;5036549;28;20497;-83
2022/05/25 04:01:00;;;;;;;60.42;29.30;;;7.60;99.90;;;;;;5035461;28;20090;-84
2022/05/25 04:03:26;;;;;;;59.45;29.08;;;7.70;99.90;;;;;;5036659;28;20049;-84
2022/05/25 04:05:51;;;;;;;65.93;28.75;;;7.70;99.90;;;;;;5037122;28;20068;-82
2022/05/25 04:08:17;;;;;;;70.25;30.33;;;7.70;99.90;;;;;;5035798;28;20046;-84
2022/05/25 04:10:45;;;;;;;60.22;28.80;;;7.70;99.90;;;;;;5035285;28;20098;-84
2022/05/25 04:13:10;;;;;;;66.25;28.77;;;7.70;99.90;;;;;;5036655;28;20069;-84
2022/05/25 04:15:36;;;;;;;61.40;28.88;;;8.10;99.90;;;;;;5035849;28;20540;-84
2022/05/25 04:18:03;;;;;;;60.03;27.77;;;7.90;99.90;;;;;;5036037;28;20076;-85
2022/05/25 04:20:30;;;;;;;58.50;26.85;;;7.90;99.90;;;;;;5033878;28;20045;-84
2022/05/25 04:22:56;;;;;;;51.00;27.88;;;8.00;99.90;;;;;;5035838;28;20056;-83
2022/05/25 04:25:24;;;;;;;54.40;27.00;;;8.00;99.90;;;;;;5035855;28;20041;-84
2022/05/25 04:27:51;;;;;;;55.78;28.35;;;8.30;99.90;;;;;;5035814;28;20041;-84
2022/05/25 04:30:20;;;;;;;49.28;25.58;;;8.20;99.90;;;;;;5035085;28;20528;-84
2022/05/25 04:32:45;;;;;;;54.90;26.80;;;8.30;99.90;;;;;;5035183;28;20065;-84
2022/05/25 04:35:14;;;;;;;50.20;25.42;;;8.30;99.90;;;;;;5035028;28;20494;-84
2022/05/25 04:37:57;;;;;;;54.22;27.27;;;8.50;99.90;;;;;;5034920;28;20060;-84
2022/05/25 04:40:27;;;;;;;49.58;25.48;;;8.60;99.90;;;;;;5034828;28;20413;-83
2022/05/25 04:42:54;;;;;;;43.45;23.88;;;8.90;99.90;;;;;;5035132;28;20406;-84
2022/05/25 04:45:21;;;;;;;37.58;20.77;;;9.40;99.90;;;;;;5034226;28;20051;-83
2022/05/25 04:47:47;;;;;;;31.73;19.10;;;10.00;99.90;;;;;;5034091;28;20125;-85
2022/05/25 04:50:14;;;;;;;29.63;18.27;;;10.50;99.90;;;;;;5035241;28;20081;-84
2022/05/25 04:52:40;;;;;;;20.23;12.57;;;11.10;99.90;;;;;;5035314;28;20042;-84
2022/05/25 04:55:08;;;;;;;18.00;11.82;;;11.60;99.90;;;;;;5034900;28;20049;-84
2022/05/25 04:57:34;;;;;;;13.30;10.48;;;11.90;99.90;;;;;;5034597;28;20053;-83
2022/05/25 05:00:03;;;;;;;15.27;9.02;;;12.30;99.90;;;;;;5034155;28;20065;-83
2022/05/25 05:02:29;;;;;;;11.27;7.20;;;12.60;99.90;;;;;;5034638;28;20540;-84
2022/05/25 05:04:56;;;;;;;14.48;7.68;;;12.80;99.90;;;;;;5034877;28;20045;-85
2022/05/25 05:07:35;;;;;;;13.63;7.43;;;13.10;99.90;;;;;;5035009;28;20557;-84
2022/05/25 05:10:01;;;;;;;10.43;5.97;;;13.90;99.90;;;;;;5034158;28;20045;-83
2022/05/25 05:12:28;;;;;;;11.48;6.15;;;14.00;99.90;;;;;;5034832;28;20418;-85
2022/05/25 05:14:54;;;;;;;7.30;5.75;;;14.40;99.90;;;;;;5034623;28;20045;-84
2022/05/25 05:17:20;;;;;;;9.30;6.80;;;14.60;99.90;;;;;;5034636;28;20049;-84
2022/05/25 05:19:46;;;;;;;8.00;5.85;;;15.00;99.90;;;;;;5035033;28;20524;-83
2022/05/25 05:22:11;;;;;;;10.93;6.35;;;15.40;99.90;;;;;;5034747;28;20490;-84
2022/05/25 05:24:37;;;;;;;9.45;5.97;;;15.70;99.90;;;;;;5033454;28;20045;-83
2022/05/25 05:27:04;;;;;;;10.38;5.63;;;16.10;99.90;;;;;;5033573;28;20052;-85
2022/05/25 05:29:30;;;;;;;10.80;5.68;;;16.30;99.90;;;;;;5034456;28;20045;-84
2022/05/25 05:31:57;;;;;;;9.30;5.40;;;16.60;99.90;;;;;;5034604;28;20387;-85
2022/05/25 05:34:23;;;;;;;7.80;5.60;;;16.90;99.90;;;;;;5035023;28;20042;-84
2022/05/25 05:37:02;;;;;;;12.55;6.28;;;16.90;99.90;;;;;;5034654;28;20038;-85
2022/05/25 05:39:32;;;;;;;9.65;6.25;;;17.10;99.90;;;;;;5034241;28;20632;-85
2022/05/25 05:42:07;;;;;;;7.22;5.00;;;17.30;99.90;;;;;;5034203;28;20117;-86
2022/05/25 05:44:38;;;;;;;9.57;5.55;;;17.50;99.90;;;;;;5034784;28;20116;-85
2022/05/25 05:47:07;;;;;;;11.07;5.03;;;17.60;99.90;;;;;;5034636;28;20041;-85
2022/05/25 05:49:39;;;;;;;10.93;6.28;;;17.60;99.50;;;;;;5036376;28;20514;-85
2022/05/25 05:52:05;;;;;;;7.07;5.10;;;17.60;97.30;;;;;;5039552;28;20098;-85
2022/05/25 05:54:31;;;;;;;10.70;6.00;;;17.60;94.80;;;;;;5038746;28;20173;-86
2022/05/25 05:56:57;;;;;;;10.05;6.70;;;17.80;93.40;;;;;;5039577;28;20056;-85
2022/05/25 05:59:23;;;;;;;10.30;5.72;;;17.90;91.40;;;;;;5040822;28;20091;-85
2022/05/25 06:01:48;;;;;;;8.98;5.68;;;18.10;91.20;;;;;;5039467;28;20053;-84
2022/05/25 06:04:14;;;;;;;8.65;5.55;;;18.30;84.80;;;;;;5049949;28;20056;-85
2022/05/25 06:06:40;;;;;;;7.28;5.85;;;18.40;84.20;;;;;;5048634;28;20034;-86
2022/05/25 06:09:06;;;;;;;10.48;6.93;;;18.80;74.70;;;;;;5048692;28;20551;-86
2022/05/25 06:11:32;;;;;;;10.25;6.03;;;19.00;73.90;;;;;;5044389;28;20458;-85
2022/05/25 06:13:58;;;;;;;9.63;6.53;;;19.10;69.40;;;;;;5038698;28;20042;-85
2022/05/25 06:19:26;;;;;;;10.40;6.25;;;19.50;60.40;;;;;;5035193;28;20049;-86
2022/05/25 06:22:12;;;;;;;8.45;5.32;;;19.60;61.60;;;;;;5034249;28;20111;-86
2022/05/25 06:24:49;;;;;;;10.68;5.88;;;19.80;63.30;;;;;;5033865;28;20057;-86
2022/05/25 06:27:16;;;;;;;11.18;5.93;;;20.00;60.30;;;;;;5035523;28;20072;-86
2022/05/25 06:29:44;;;;;;;8.70;5.88;;;20.30;52.30;;;;;;5032691;28;20064;-86
2022/05/25 06:32:11;;;;;;;8.30;5.63;;;20.30;49.70;;;;;;5035175;28;20049;-85
2022/05/25 06:34:38;;;;;;;10.38;5.80;;;20.40;47.10;;;;;;5034834;28;20067;-85
2022/05/25 06:37:07;;;;;;;8.27;5.65;;;20.90;51.00;;;;;;5035564;28;20045;-85
2022/05/25 06:39:37;;;;;;;11.02;5.97;;;20.50;46.10;;;;;;5032971;28;20041;-85
2022/05/25 06:42:03;;;;;;;10.13;5.32;;;20.40;48.20;;;;;;5032724;28;20054;-84
2022/05/25 06:44:29;;;;;;;9.80;6.13;;;20.30;49.50;;;;;;5032556;28;20048;-86
2022/05/25 06:46:54;;;;;;;10.50;5.38;;;20.60;43.60;;;;;;5022393;28;20045;-85
2022/05/25 06:49:20;;;;;;;8.68;5.00;;;20.70;48.90;;;;;;5013205;28;20057;-86
2022/05/25 06:51:46;;;;;;;8.70;4.65;;;20.80;37.50;;;;;;5011927;28;20052;-85
2022/05/25 06:54:17;;;;;;;7.57;5.20;;;21.00;38.10;;;;;;5012442;28;20042;-85
2022/05/25 06:56:42;;;;;;;7.88;4.45;;;20.90;49.80;;;;;;5013302;28;20042;-85
2022/05/25 06:59:09;;;;;;;8.60;4.90;;;21.10;38.10;;;;;;5011825;28;20092;-84
2022/05/25 07:01:36;;;;;;;8.88;4.85;;;20.90;43.50;;;;;;5014668;28;20050;-84
2022/05/25 07:04:02;;;;;;;9.35;4.88;;;21.30;37.10;;;;;;5043050;28;20048;-85
2022/05/25 07:06:27;;;;;;;9.88;5.32;;;21.30;34.90;;;;;;5043224;28;20045;-85
2022/05/25 07:08:53;;;;;;;6.53;4.30;;;21.50;29.60;;;;;;5043245;28;20087;-84
2022/05/25 07:11:20;;;;;;;7.53;4.45;;;21.70;29.30;;;;;;5040212;28;20053;-84
2022/05/25 07:13:46;;;;;;;7.45;3.95;;;21.70;27.00;;;;;;5032349;28;20034;-85
2022/05/25 07:16:15;;;;;;;8.48;3.70;;;21.70;24.00;;;;;;5031679;28;20609;-83
2022/05/25 07:18:42;;;;;;;9.95;4.38;;;21.60;25.80;;;;;;5031700;28;20064;-84
2022/05/25 07:21:20;;;;;;;9.00;4.07;;;21.70;18.80;;;;;;5032501;28;20405;-84
2022/05/25 07:23:47;;;;;;;6.00;3.30;;;21.50;16.30;;;;;;5032152;28;20056;-85
2022/05/25 07:26:14;;;;;;;8.18;4.10;;;21.60;16.60;;;;;;5029130;28;20385;-84
2022/05/25 07:28:40;;;;;;;8.73;4.25;;;21.50;18.90;;;;;;5030415;28;20120;-84
2022/05/25 07:31:14;;;;;;;10.55;4.90;;;21.60;18.90;;;;;;5032216;28;20144;-84
2022/05/25 07:33:44;;;;;;;8.43;4.00;;;21.60;18.90;;;;;;5032463;28;20576;-84
2022/05/25 07:36:11;;;;;;;10.43;3.90;;;21.80;16.30;;;;;;5032131;28;20056;-85
2022/05/25 07:38:43;;;;;;;7.60;4.13;;;21.90;11.00;;;;;;5031145;28;20052;-84
2022/05/25 07:41:09;;;;;;;7.10;4.05;;;22.20;19.80;;;;;;5032042;28;20036;-85
2022/05/25 07:43:36;;;;;;;7.35;4.07;;;22.80;15.30;;;;;;5031626;28;20056;-86
2022/05/25 07:46:01;;;;;;;7.30;4.70;;;23.00;10.20;;;;;;5030169;28;20049;-85
2022/05/25 07:48:27;;;;;;;7.18;4.13;;;22.90;3.50;;;;;;5031441;28;20059;-85
2022/05/25 07:50:52;;;;;;;7.75;3.65;;;22.80;3.20;;;;;;5030197;28;20049;-86
2022/05/25 07:56:03;;;;;;;7.68;3.63;;;22.50;3.10;;;;;;5030194;28;20049;-85
2022/05/25 07:58:30;;;;;;;7.13;3.67;;;22.60;4.60;;;;;;5031617;28;20049;-84
2022/05/25 08:01:00;;;;;;;5.88;3.97;;;22.80;1.20;;;;;;5031903;28;20085;-85
2022/05/25 08:06:10;;;;;;;7.60;3.60;;;23.10;1.00;;;;;;5025553;28;20045;-84
2022/05/25 08:08:37;;;;;;;7.20;3.75;;;22.80;1.00;;;;;;5030799;28;20502;-84
2022/05/25 08:11:07;;;;;;;4.80;2.97;;;22.70;1.00;;;;;;5030579;28;20157;-85
2022/05/25 08:13:38;;;;;;;6.13;3.30;;;22.40;1.00;;;;;;5030813;28;20041;-85
2022/05/25 08:16:04;;;;;;;5.15;2.63;;;22.30;1.00;;;;;;5027601;28;20470;-85
2022/05/25 08:18:30;;;;;;;5.30;2.55;;;22.80;1.00;;;;;;5029977;28;20128;-85
2022/05/25 08:20:55;;;;;;;10.50;3.08;;;23.00;1.00;;;;;;5030735;28;20045;-85
2022/05/25 08:23:22;;;;;;;7.25;3.10;;;22.70;1.00;;;;;;5029586;28;20504;-85
2022/05/25 08:25:48;;;;;;;5.90;3.00;;;22.90;1.00;;;;;;5030786;28;20620;-85
2022/05/25 08:28:14;;;;;;;7.13;2.88;;;23.30;1.00;;;;;;5030934;28;20406;-85
2022/05/25 08:30:42;;;;;;;4.85;2.65;;;23.40;1.00;;;;;;5030705;28;20049;-85
2022/05/25 08:33:09;;;;;;;4.00;2.58;;;23.20;1.00;;;;;;5030244;28;20497;-86
2022/05/25 08:35:35;;;;;;;5.40;2.63;;;23.40;1.00;;;;;;5030407;28;20052;-85
2022/05/25 08:38:00;;;;;;;3.47;2.08;;;23.10;1.00;;;;;;5030969;28;20041;-86
2022/05/25 08:40:28;;;;;;;3.28;1.80;;;23.20;1.00;;;;;;5030409;28;20512;-86
2022/05/25 08:43:18;;;;;;;4.05;1.90;;;23.20;1.00;;;;;;5030237;28;20108;-85
2022/05/25 08:45:51;;;;;;;4.55;1.80;;;22.30;1.00;;;;;;5030257;28;20739;-86
2022/05/25 08:48:19;;;;;;;4.78;2.03;;;22.00;1.00;;;;;;5030708;28;20041;-86
2022/05/25 08:50:50;;;;;;;3.78;1.70;;;21.90;1.00;;;;;;5030621;28;20399;-86
2022/05/25 08:53:17;;;;;;;5.35;1.80;;;21.90;1.00;;;;;;5030318;28;20485;-86
2022/05/25 08:55:54;;;;;;;5.90;1.80;;;22.00;1.00;;;;;;5028711;28;20034;-87
2022/05/25 08:58:24;;;;;;;4.50;1.90;;;21.80;1.00;;;;;;5036185;28;20056;-87
2022/05/25 09:00:53;;;;;;;4.47;1.98;;;21.70;1.00;;;;;;5033070;28;20057;-89
2022/05/25 09:03:35;;;;;;;3.30;2.08;;;21.60;1.00;;;;;;5029774;28;20053;-85
2022/05/25 09:06:12;;;;;;;5.88;2.20;;;21.40;1.00;;;;;;5031821;28;20128;-85
2022/05/25 09:08:57;;;;;;;4.13;2.30;;;21.00;1.00;;;;;;5032809;28;20466;-86
2022/05/25 09:11:33;;;;;;;9.27;2.38;;;20.80;1.00;;;;;;5032579;28;20033;-84
2022/05/25 09:14:06;;;;;;;5.63;2.35;;;20.80;1.00;;;;;;5031923;28;20148;-84
2022/05/25 09:16:35;;;;;;;12.23;2.70;;;20.70;1.00;;;;;;5031002;28;20048;-86
2022/05/25 09:19:08;;;;;;;5.05;2.17;;;20.60;1.00;;;;;;5031439;28;20042;-83
2022/05/25 09:21:41;;;;;;;5.47;2.10;;;20.60;1.00;;;;;;5032541;28;20096;-85
2022/05/25 09:24:13;;;;;;;4.22;2.15;;;20.40;1.00;;;;;;5033280;28;20060;-83
2022/05/25 09:26:39;;;;;;;4.15;2.05;;;20.20;1.00;;;;;;5036180;28;20527;-83
2022/05/25 09:29:07;;;;;;;4.38;1.83;;;20.30;2.10;;;;;;5036270;28;20080;-83
2022/05/25 09:31:42;;;;;;;3.53;2.10;;;20.50;1.30;;;;;;5036050;28;20041;-85
2022/05/25 09:34:13;;;;;;;6.97;2.20;;;20.70;1.00;;;;;;5035180;28;20396;-83
2022/05/25 09:36:53;;;;;;;3.92;2.00;;;20.80;1.00;;;;;;5036060;28;20053;-82
2022/05/25 09:39:26;;;;;;;6.70;2.40;;;20.80;4.20;;;;;;5036419;28;20046;-82
2022/05/25 09:41:58;;;;;;;3.20;1.90;;;20.80;1.00;;;;;;5036202;28;20052;-83
2022/05/25 09:44:25;;;;;;;3.40;2.00;;;21.10;1.00;;;;;;5035329;28;20042;-81
2022/05/25 09:46:59;;;;;;;3.75;1.83;;;21.20;1.00;;;;;;5035890;28;20053;-86
2022/05/25 09:49:44;;;;;;;3.28;1.70;;;20.80;1.00;;;;;;5035695;28;20049;-86
2022/05/25 09:52:20;;;;;;;3.63;2.15;;;20.80;1.00;;;;;;5036021;28;20112;-86
2022/05/25 09:54:57;;;;;;;4.78;2.28;;;21.10;1.40;;;;;;5036336;28;20047;-86
2022/05/25 09:57:45;;;;;;;5.07;2.10;;;21.30;1.00;;;;;;5035490;28;20045;-86
2022/05/25 10:00:21;;;;;;;4.88;1.98;;;21.20;1.00;;;;;;5038093;28;20061;-87
2022/05/25 10:02:47;;;;;;;6.22;2.20;;;21.10;1.00;;;;;;5036215;28;20139;-87
2022/05/25 10:05:17;;;;;;;7.78;1.73;;;21.20;1.00;;;;;;5036123;28;20057;-86
2022/05/25 10:07:58;;;;;;;5.32;1.90;;;21.40;1.00;;;;;;5036363;28;20045;-86
2022/05/25 10:10:32;;;;;;;2.83;1.75;;;21.60;1.00;;;;;;5035807;28;20120;-87
2022/05/25 10:13:12;;;;;;;6.57;2.10;;;21.40;1.00;;;;;;5035823;28;20034;-86
2022/05/25 10:15:38;;;;;;;5.47;1.73;;;21.00;1.00;;;;;;5036246;28;20037;-87
2022/05/25 10:18:04;;;;;;;2.85;1.65;;;20.70;1.00;;;;;;5036183;28;20118;-87
2022/05/25 10:20:42;;;;;;;4.38;1.67;;;20.70;1.00;;;;;;5036534;28;20041;-82
2022/05/25 10:23:22;;;;;;;6.25;1.90;;;20.90;1.00;;;;;;5036602;28;20046;-84
2022/05/25 10:25:54;;;;;;;3.85;1.60;;;21.10;1.00;;;;;;5036880;28;20100;-86
2022/05/25 10:28:31;;;;;;;3.45;1.42;;;21.10;1.00;;;;;;5037954;28;20052;-85
2022/05/25 10:36:58;;;;;;;6.32;1.88;;;19.90;1.00;;;;;;5033892;28;20061;-87
2022/05/25 10:39:30;;;;;;;5.28;1.88;;;19.60;1.00;;;;;;5035003;28;20055;-85
2022/05/25 10:42:26;;;;;;;4.65;1.92;;;19.50;1.00;;;;;;5035237;28;20497;-85
2022/05/25 10:45:13;;;;;;;4.97;1.90;;;19.80;1.00;;;;;;5035305;28;20045;-86
2022/05/25 10:48:07;;;;;;;4.45;1.85;;;20.40;1.00;;;;;;5035501;28;20068;-85
2022/05/25 10:50:43;;;;;;;4.90;1.80;;;20.90;1.00;;;;;;5035193;28;20045;-86
2022/05/25 10:53:26;;;;;;;6.10;1.50;;;21.70;1.00;;;;;;5022625;28;20363;-87
2022/05/25 10:56:34;;;;;;;4.55;1.83;;;22.00;1.00;;;;;;5035129;28;20128;-86
2022/05/25 10:59:02;;;;;;;3.95;1.50;;;22.00;1.00;;;;;;5021772;28;20045;-86
2022/05/25 11:01:40;;;;;;;4.97;1.10;;;22.00;1.00;;;;;;5013604;28;20479;-86
2022/05/25 11:04:08;;;;;;;3.20;1.40;;;22.10;1.00;;;;;;5013516;28;20063;-85
2022/05/25 11:07:02;;;;;;;7.05;1.70;;;22.10;1.00;;;;;;5029943;28;20061;-86
2022/05/25 11:09:42;;;;;;;5.55;1.40;;;21.70;1.00;;;;;;5014454;28;20053;-86
2022/05/25 11:12:21;;;;;;;4.07;1.80;;;21.40;1.00;;;;;;5014233;28;20449;-86
2022/05/25 11:15:09;;;;;;;3.40;1.83;;;21.10;1.00;;;;;;5013802;28;20157;-86
2022/05/25 11:18:12;;;;;;;3.95;1.70;;;20.80;1.00;;;;;;5014365;28;20045;-87
2022/05/25 11:20:52;;;;;;;5.13;1.98;;;21.20;1.00;;;;;;5015037;28;20054;-88
2022/05/25 11:23:48;;;;;;;3.60;1.73;;;22.30;1.00;;;;;;5015201;28;20085;-88
2022/05/25 11:26:42;;;;;;;4.65;1.45;;;22.50;1.00;;;;;;5015087;28;20100;-87
2022/05/25 11:29:27;;;;;;;2.83;1.40;;;22.00;1.00;;;;;;5014963;28;20056;-87
2022/05/25 11:31:56;;;;;;;4.80;1.70;;;21.30;1.00;;;;;;5014752;28;20445;-87
2022/05/25 11:34:42;;;;;;;4.32;1.90;;;21.10;1.00;;;;;;5014916;28;20046;-88
2022/05/25 11:37:20;;;;;;;3.25;1.80;;;21.90;1.00;;;;;;5014766;28;20050;-87
2022/05/25 11:39:57;;;;;;;5.22;2.25;;;22.60;1.00;;;;;;5014375;28;20504;-87
2022/05/25 11:42:44;;;;;;;5.88;2.33;;;23.20;1.00;;;;;;5029747;28;20053;-88
2022/05/25 11:45:39;;;;;;;5.22;1.98;;;23.00;1.00;;;;;;5014741;28;20046;-88
2022/05/25 11:48:10;;;;;;;8.82;3.22;;;22.40;1.00;;;;;;5013945;28;20058;-88
2022/05/25 11:50:59;;;;;;;5.43;3.50;;;21.80;1.00;;;;;;5029859;28;20112;-86
2022/05/25 11:53:46;;;;;;;7.70;3.22;;;21.40;1.00;;;;;;5014590;28;20122;-87
2022/05/25 11:56:31;;;;;;;5.70;3.10;;;20.50;1.00;;;;;;5013750;28;20088;-87
2022/05/25 11:59:02;;;;;;;7.70;3.17;;;19.10;4.60;;;;;;5013986;28;20049;-87
2022/05/25 12:02:12;;;;;;;7.88;3.72;;;18.50;13.40;;;;;;5013139;28;20057;-86
2022/05/25 12:04:49;;;;;;;7.50;3.67;;;17.80;51.80;;;;;;5014222;28;20437;-87
2022/05/25 12:07:31;;;;;;;5.97;3.35;;;16.40;87.20;;;;;;5014175;28;20069;-86
2022/05/25 12:10:18;;;;;;;8.68;3.40;;;15.40;99.90;;;;;;5014062;28;20494;-87
2022/05/25 12:12:53;;;;;;;5.40;3.05;;;14.90;99.90;;;;;;5014000;28;20510;-86
2022/05/25 12:15:49;;;;;;;6.50;2.95;;;14.80;99.90;;;;;;5013879;28;20045;-87
2022/05/25 12:18:38;;;;;;;8.18;2.85;;;15.00;99.90;;;;;;5013948;28;20046;-87
2022/05/25 12:21:16;;;;;;;5.60;3.28;;;15.30;99.90;;;;;;5013740;28;20490;-87
2022/05/25 12:23:49;;;;;;;9.23;3.17;;;15.90;99.90;;;;;;5014034;28;20449;-87
2022/05/25 12:26:22;;;;;;;5.70;3.42;;;16.40;99.90;;;;;;5013692;28;20231;-87
2022/05/25 12:28:51;;;;;;;5.22;2.50;;;16.90;99.90;;;;;;5014212;28;20052;-87
2022/05/25 12:31:22;;;;;;;5.32;2.53;;;17.70;99.90;;;;;;5013671;28;20038;-87
2022/05/25 12:33:48;;;;;;;3.20;1.85;;;17.90;99.90;;;;;;5013901;28;20117;-87
2022/05/25 12:36:16;;;;;;;6.25;2.00;;;18.50;91.90;;;;;;5012418;28;20053;-87
2022/05/25 12:38:42;;;;;;;8.60;2.53;;;19.10;81.20;;;;;;5028827;28;20049;-87
2022/05/25 12:41:25;;;;;;;4.63;2.00;;;19.80;72.20;;;;;;5013568;28;20069;-87
2022/05/25 12:48:30;;;;;;;6.72;2.10;;;20.50;50.50;;;;;;5014171;28;20556;-88
2022/05/25 12:49:38;;;;;;;4.90;1.98;;;21.20;31.20;;;;;;5013752;28;20050;-88
2022/05/25 12:52:25;;;;;;;5.25;2.00;;;21.40;22.90;;;;;;5014166;28;20482;-88
2022/05/25 12:54:52;;;;;;;6.03;1.75;;;21.70;10.80;;;;;;5013825;28;20057;-88
2022/05/25 12:57:45;;;;;;;3.70;1.70;;;22.10;15.40;;;;;;5030050;28;20092;-89
2022/05/25 13:00:35;;;;;;;6.03;1.92;;;22.70;4.40;;;;;;5018484;28;20422;-88
2022/05/25 13:03:14;;;;;;;9.50;2.55;;;23.00;1.00;;;;;;5020087;28;20054;-88
2022/05/25 13:05:58;;;;;;;6.32;2.35;;;22.50;1.00;;;;;;5020603;28;20042;-87
2022/05/25 13:08:46;;;;;;;4.90;1.95;;;22.10;1.00;;;;;;5020594;28;20041;-88
2022/05/25 13:11:32;;;;;;;3.70;1.40;;;21.90;1.00;;;;;;5020967;28;20057;-89
2022/05/25 13:14:00;;;;;;;5.15;1.27;;;21.80;1.00;;;;;;5020240;28;20046;-85
2022/05/25 13:16:40;;;;;;;4.47;1.08;;;22.80;1.00;;;;;;5020246;28;20064;-88
2022/05/25 13:19:31;;;;;;;4.15;0.82;;;22.20;1.00;;;;;;5020502;28;20463;-87
2022/05/25 13:22:02;;;;;;;5.15;0.90;;;22.80;1.00;;;;;;5020095;28;20050;-88
2022/05/25 13:24:41;;;;;;;2.67;0.82;;;22.60;1.00;;;;;;5019829;28;20054;-87
2022/05/25 13:27:32;;;;;;;4.47;0.93;;;22.20;1.00;;;;;;5035002;28;20092;-87
2022/05/25 13:30:23;;;;;;;6.63;1.00;;;22.30;1.00;;;;;;5020053;28;20490;-88
2022/05/25 13:32:59;;;;;;;4.28;0.95;;;22.00;1.00;;;;;;5020199;28;20054;-87
2022/05/25 13:35:24;;;;;;;2.10;0.60;;;21.50;1.00;;;;;;5019143;28;20076;-87
2022/05/25 13:37:54;;;;;;;5.80;0.98;;;21.10;1.00;;;;;;5020072;28;20041;-88